createdAt,value
2023-04-01T00:00:42.533Z,84.303
2023-04-01T00:01:41.720Z,84.616
2023-04-01T00:02:42.377Z,84.024
2023-04-01T00:03:42.695Z,84.324
2023-04-01T00:04:42.561Z,84.597
2023-04-01T00:07:42.384Z,84.068
2023-04-01T00:08:41.562Z,83.815
2023-04-01T00:09:41.755Z,83.691
2023-04-01T00:10:41.990Z,83.454
2023-04-01T00:11:42.304Z,83.385
2023-04-01T00:12:42.548Z,83.393
2023-04-01T00:13:41.745Z,83.561
2023-04-01T00:14:41.927Z,83.097
2023-04-01T00:15:42.202Z,82.821
2023-04-01T00:16:42.018Z,82.045
2023-04-01T00:17:42.570Z,82.653
2023-04-01T00:18:41.920Z,82.888
2023-04-01T00:19:42.177Z,83.252
2023-04-01T00:20:42.468Z,83.208
2023-04-01T00:21:41.644Z,82.752
2023-04-01T00:22:41.793Z,83.034
2023-04-01T00:23:41.974Z,83.137
2023-04-01T00:24:42.433Z,83.158
2023-04-01T00:25:42.628Z,83.265
2023-04-01T00:26:41.789Z,82.605
2023-04-01T00:27:41.974Z,82.924
2023-04-01T00:28:42.136Z,82.985
2023-04-01T00:29:42.295Z,83.183
2023-04-01T00:30:42.519Z,82.888
2023-04-01T00:31:41.720Z,83.147
2023-04-01T00:32:42.382Z,82.724
2023-04-01T00:33:42.006Z,82.531
2023-04-01T00:34:42.179Z,82.720
2023-04-01T00:35:42.536Z,82.685
2023-04-01T00:36:41.920Z,81.842
2023-04-01T00:37:42.187Z,81.259
2023-04-01T00:38:42.433Z,81.106
2023-04-01T00:39:41.664Z,81.415
2023-04-01T00:40:41.944Z,81.291
2023-04-01T00:41:42.150Z,80.858
2023-04-01T00:42:42.304Z,79.983
2023-04-01T00:43:41.645Z,80.181
2023-04-01T00:44:41.859Z,80.067
2023-04-01T00:45:42.163Z,80.412
2023-04-01T00:46:42.486Z,80.715
2023-04-01T00:47:42.001Z,80.070
2023-04-01T00:48:42.474Z,80.147
2023-04-01T00:49:41.668Z,80.299
2023-04-01T00:50:42.169Z,80.311
2023-04-01T00:51:42.367Z,80.345
2023-04-01T00:52:42.492Z,80.303
2023-04-01T00:53:41.629Z,80.160
2023-04-01T00:54:41.792Z,79.613
2023-04-01T00:55:41.963Z,79.840
2023-04-01T00:56:42.241Z,79.662
2023-04-01T00:57:42.553Z,79.683
2023-04-01T00:58:41.697Z,79.195
2023-04-01T00:59:41.964Z,79.145
2023-04-01T01:00:42.340Z,79.325
2023-04-01T01:01:41.696Z,79.166
2023-04-01T01:02:42.412Z,79.060
2023-04-01T01:03:41.763Z,78.016
2023-04-01T01:04:41.910Z,78.823
2023-04-01T01:07:42.262Z,79.002
2023-04-01T01:08:42.459Z,79.117
2023-04-01T01:09:42.594Z,79.901
2023-04-01T01:10:41.885Z,79.603
2023-04-01T01:11:45.391Z,79.420
2023-04-01T01:13:41.954Z,78.857
2023-04-01T01:14:42.134Z,78.545
2023-04-01T01:15:42.312Z,78.142
2023-04-01T01:16:42.669Z,78.543
2023-04-01T01:17:42.595Z,78.983
2023-04-01T01:18:42.132Z,78.831
2023-04-01T01:19:42.450Z,78.463
2023-04-01T01:20:45.684Z,78.485
2023-04-01T01:22:42.030Z,78.060
2023-04-01T01:23:42.282Z,78.260
2023-04-01T01:24:42.575Z,78.468
2023-04-01T01:25:41.750Z,78.737
2023-04-01T01:26:41.931Z,78.583
2023-04-01T01:27:42.148Z,78.646
2023-04-01T01:28:42.461Z,78.812
2023-04-01T01:29:41.656Z,78.504
2023-04-01T01:30:41.968Z,78.482
2023-04-01T01:31:42.352Z,78.537
2023-04-01T01:32:42.925Z,78.764
2023-04-01T01:33:43.443Z,78.525
2023-04-01T01:34:43.050Z,78.319
2023-04-01T01:35:42.077Z,78.100
2023-04-01T01:36:42.475Z,77.892
2023-04-01T01:39:42.280Z,78.375
2023-04-01T01:40:42.579Z,78.295
2023-04-01T01:41:41.757Z,78.598
2023-04-01T01:42:42.065Z,78.178
2023-04-01T01:43:42.309Z,78.268
2023-04-01T01:44:42.516Z,78.077
2023-04-01T01:45:41.876Z,78.348
2023-04-01T01:46:42.288Z,78.625
2023-04-01T01:47:42.724Z,78.081
2023-04-01T01:48:42.235Z,78.613
2023-04-01T01:49:42.373Z,78.857
2023-04-01T01:50:41.664Z,78.764
2023-04-01T01:51:42.060Z,78.257
2023-04-01T01:52:42.208Z,78.190
2023-04-01T01:53:42.424Z,78.016
2023-04-01T01:54:42.610Z,78.201
2023-04-01T01:55:41.867Z,78.028
2023-04-01T01:56:42.049Z,78.098
2023-04-01T01:57:42.339Z,77.606
2023-04-01T01:58:42.571Z,77.614
2023-04-01T02:00:42.075Z,78.051
2023-04-01T02:01:42.466Z,77.734
2023-04-01T02:02:42.380Z,77.619
2023-04-01T02:03:42.591Z,78.115
2023-04-01T02:04:41.917Z,77.993
2023-04-01T02:05:42.399Z,78.138
2023-04-01T02:06:42.536Z,77.825
2023-04-01T02:07:41.752Z,77.841
2023-04-01T02:08:41.969Z,78.106
2023-04-01T02:09:42.148Z,78.377
2023-04-01T02:10:42.354Z,77.734
2023-04-01T02:11:42.643Z,77.783
2023-04-01T02:12:41.992Z,76.979
2023-04-01T02:13:42.220Z,76.486
2023-04-01T02:14:42.445Z,76.856
2023-04-01T02:15:41.667Z,76.725
2023-04-01T02:16:42.063Z,77.059
2023-04-01T02:17:42.375Z,77.185
2023-04-01T02:18:42.015Z,76.881
2023-04-01T02:19:42.296Z,77.066
2023-04-01T02:20:42.568Z,76.578
2023-04-01T02:21:41.709Z,77.139
2023-04-01T02:22:42.049Z,76.900
2023-04-01T02:23:42.478Z,77.156
2023-04-01T02:24:41.804Z,77.293
2023-04-01T02:25:42.055Z,76.795
2023-04-01T02:26:42.455Z,76.973
2023-04-01T02:27:41.846Z,76.914
2023-04-01T02:28:42.199Z,77.059
2023-04-01T02:29:42.433Z,77.009
2023-04-01T02:30:41.683Z,76.725
2023-04-01T02:31:42.014Z,76.641
2023-04-01T02:32:42.386Z,77.188
2023-04-01T02:33:41.787Z,76.303
2023-04-01T02:34:42.080Z,76.071
2023-04-01T02:35:42.459Z,76.303
2023-04-01T02:36:41.978Z,76.616
2023-04-01T02:37:42.304Z,76.523
2023-04-01T02:38:42.569Z,76.841
2023-04-01T02:39:41.711Z,76.328
2023-04-01T02:40:41.948Z,76.568
2023-04-01T02:41:42.305Z,76.496
2023-04-01T02:42:42.483Z,76.721
2023-04-01T02:43:41.747Z,76.420
2023-04-01T02:44:41.964Z,76.292
2023-04-01T02:45:42.601Z,75.970
2023-04-01T02:46:41.911Z,76.397
2023-04-01T02:47:42.436Z,76.706
2023-04-01T02:48:41.879Z,76.383
2023-04-01T02:49:42.233Z,76.446
2023-04-01T02:50:42.606Z,76.406
2023-04-01T02:51:41.923Z,76.391
2023-04-01T02:52:42.291Z,76.729
2023-04-01T02:53:42.598Z,76.630
2023-04-01T02:54:41.899Z,76.668
2023-04-01T02:55:42.442Z,76.349
2023-04-01T02:56:41.811Z,76.755
2023-04-01T02:57:42.276Z,76.706
2023-04-01T02:58:42.771Z,76.004
2023-04-01T02:59:42.015Z,76.126
2023-04-01T03:00:42.324Z,75.849
2023-04-01T03:01:41.641Z,76.012
2023-04-01T03:02:42.587Z,76.366
2023-04-01T03:03:42.603Z,76.437
2023-04-01T03:04:41.888Z,76.454
2023-04-01T03:05:42.308Z,76.210
2023-04-01T03:06:42.477Z,76.610
2023-04-01T03:07:41.699Z,76.620
2023-04-01T03:08:41.900Z,77.459
2023-04-01T03:09:42.179Z,77.179
2023-04-01T03:10:42.481Z,76.918
2023-04-01T03:11:42.233Z,77.003
2023-04-01T03:12:42.478Z,76.630
2023-04-01T03:13:41.792Z,77.392
2023-04-01T03:14:42.072Z,77.017
2023-04-01T03:15:42.022Z,76.761
2023-04-01T03:16:42.260Z,76.790
2023-04-01T03:17:42.131Z,77.165
2023-04-01T03:18:42.454Z,77.049
2023-04-01T03:19:41.879Z,76.935
2023-04-01T03:20:42.132Z,76.965
2023-04-01T03:21:42.328Z,76.935
2023-04-01T03:22:44.599Z,76.347
2023-04-01T03:23:42.015Z,76.877
2023-04-01T03:24:42.360Z,77.165
2023-04-01T03:25:42.637Z,76.446
2023-04-01T03:26:41.891Z,76.965
2023-04-01T03:27:42.140Z,76.763
2023-04-01T03:28:42.504Z,76.509
2023-04-01T03:29:41.815Z,76.870
2023-04-01T03:30:42.374Z,76.063
2023-04-01T03:31:42.792Z,76.649
2023-04-01T03:32:42.049Z,76.027
2023-04-01T03:33:42.551Z,76.483
2023-04-01T03:34:41.824Z,76.267
2023-04-01T03:35:42.094Z,76.399
2023-04-01T03:36:42.553Z,76.692
2023-04-01T03:37:41.776Z,76.816
2023-04-01T03:38:41.928Z,76.860
2023-04-01T03:39:44.651Z,76.712
2023-04-01T03:40:41.897Z,77.135
2023-04-01T03:41:42.072Z,77.133
2023-04-01T03:42:42.417Z,77.001
2023-04-01T03:43:41.880Z,76.794
2023-04-01T03:44:42.112Z,76.650
2023-04-01T03:45:42.768Z,76.391
2023-04-01T03:46:42.062Z,76.862
2023-04-01T03:47:42.326Z,76.918
2023-04-01T03:48:41.941Z,77.339
2023-04-01T03:49:42.097Z,76.887
2023-04-01T03:50:42.299Z,76.988
2023-04-01T03:51:42.601Z,76.645
2023-04-01T03:52:41.819Z,76.967
2023-04-01T03:53:42.043Z,76.836
2023-04-01T03:54:42.195Z,76.977
2023-04-01T03:55:41.848Z,77.066
2023-04-01T03:56:42.214Z,77.007
2023-04-01T03:57:42.560Z,77.318
2023-04-01T03:58:41.810Z,77.190
2023-04-01T03:59:42.071Z,77.618
2023-04-01T04:01:42.487Z,76.826
2023-04-01T04:02:41.901Z,76.679
2023-04-01T04:03:41.696Z,76.986
2023-04-01T04:04:42.401Z,76.610
2023-04-01T04:06:41.836Z,76.746
2023-04-01T04:07:42.041Z,76.832
2023-04-01T04:08:42.316Z,77.070
2023-04-01T04:09:42.541Z,77.341
2023-04-01T04:10:41.681Z,77.112
2023-04-01T04:11:42.080Z,77.310
2023-04-01T04:12:42.448Z,77.272
2023-04-01T04:13:41.937Z,77.093
2023-04-01T04:14:42.252Z,77.145
2023-04-01T04:15:42.511Z,77.028
2023-04-01T04:16:41.769Z,77.225
2023-04-01T04:17:42.184Z,76.959
2023-04-01T04:18:42.608Z,77.051
2023-04-01T04:19:41.757Z,77.034
2023-04-01T04:20:41.910Z,76.309
2023-04-01T04:21:42.093Z,76.872
2023-04-01T04:22:42.318Z,76.675
2023-04-01T04:23:42.546Z,76.954
2023-04-01T04:24:41.722Z,77.013
2023-04-01T04:25:42.061Z,77.146
2023-04-01T04:26:42.303Z,77.314
2023-04-01T04:27:42.502Z,77.068
2023-04-01T04:28:41.657Z,76.948
2023-04-01T04:29:41.927Z,77.070
2023-04-01T04:30:42.164Z,77.200
2023-04-01T04:31:42.550Z,77.362
2023-04-01T04:32:42.153Z,77.413
2023-04-01T04:33:42.453Z,77.307
2023-04-01T04:34:41.668Z,77.301
2023-04-01T04:35:41.958Z,77.415
2023-04-01T04:36:42.343Z,77.364
2023-04-01T04:37:42.533Z,77.795
2023-04-01T04:38:41.716Z,78.226
2023-04-01T04:39:41.848Z,78.367
2023-04-01T04:40:42.037Z,78.594
2023-04-01T04:41:42.405Z,78.209
2023-04-01T04:42:42.565Z,78.459
2023-04-01T04:43:41.713Z,78.520
2023-04-01T04:44:42.036Z,78.579
2023-04-01T04:45:42.215Z,78.821
2023-04-01T04:46:42.489Z,78.878
2023-04-01T04:47:42.749Z,79.058
2023-04-01T04:48:41.988Z,79.428
2023-04-01T04:49:42.131Z,79.655
2023-04-01T04:50:42.368Z,79.315
2023-04-01T04:51:41.672Z,79.649
2023-04-01T04:52:41.926Z,79.882
2023-04-01T04:53:42.156Z,80.357
2023-04-01T04:54:42.427Z,79.273
2023-04-01T04:55:41.664Z,79.986
2023-04-01T04:56:41.779Z,80.196
2023-04-01T04:57:42.275Z,81.144
2023-04-01T04:58:42.496Z,80.843
2023-04-01T04:59:41.771Z,81.177
2023-04-01T05:00:42.113Z,80.509
2023-04-01T05:01:42.709Z,80.746
2023-04-01T05:02:42.524Z,80.444
2023-04-01T05:04:41.627Z,80.790
2023-04-01T05:05:41.804Z,80.807
2023-04-01T05:06:42.478Z,79.819
2023-04-01T05:07:41.600Z,79.885
2023-04-01T05:08:41.771Z,80.883
2023-04-01T05:09:42.021Z,80.906
2023-04-01T05:10:42.183Z,80.646
2023-04-01T05:11:42.413Z,80.666
2023-04-01T05:12:42.551Z,80.124
2023-04-01T05:13:41.764Z,80.793
2023-04-01T05:14:42.088Z,80.601
2023-04-01T05:15:42.292Z,80.431
2023-04-01T05:16:42.721Z,80.063
2023-04-01T05:17:42.320Z,80.275
2023-04-01T05:18:41.583Z,80.509
2023-04-01T05:19:41.944Z,80.763
2023-04-01T05:20:42.219Z,80.713
2023-04-01T05:21:42.431Z,80.196
2023-04-01T05:22:42.618Z,80.528
2023-04-01T05:23:41.887Z,80.822
2023-04-01T05:24:42.119Z,80.883
2023-04-01T05:25:42.371Z,80.130
2023-04-01T05:26:42.654Z,80.612
2023-04-01T05:27:42.052Z,80.727
2023-04-01T05:28:42.294Z,80.702
2023-04-01T05:29:42.508Z,80.275
2023-04-01T05:30:41.733Z,80.643
2023-04-01T05:31:41.991Z,80.648
2023-04-01T05:32:42.293Z,80.219
2023-04-01T05:34:41.989Z,80.620
2023-04-01T05:35:42.399Z,80.654
2023-04-01T05:36:41.943Z,80.614
2023-04-01T05:37:42.275Z,80.439
2023-04-01T05:38:42.511Z,80.799
2023-04-01T05:39:41.650Z,80.616
2023-04-01T05:40:41.857Z,80.267
2023-04-01T05:41:42.143Z,80.963
2023-04-01T05:42:42.285Z,80.807
2023-04-01T05:43:42.470Z,80.734
2023-04-01T05:44:41.617Z,80.667
2023-04-01T05:45:41.824Z,80.778
2023-04-01T05:46:42.414Z,80.738
2023-04-01T05:47:41.808Z,80.830
2023-04-01T05:48:42.179Z,80.717
2023-04-01T05:49:42.530Z,80.631
2023-04-01T05:50:41.695Z,80.652
2023-04-01T05:51:41.869Z,80.582
2023-04-01T05:52:42.248Z,80.978
2023-04-01T05:53:42.514Z,80.749
2023-04-01T05:54:41.627Z,80.753
2023-04-01T05:55:41.840Z,81.024
2023-04-01T05:56:42.084Z,80.913
2023-04-01T05:57:42.583Z,80.631
2023-04-01T05:58:41.789Z,80.370
2023-04-01T05:59:42.103Z,80.500
2023-04-01T06:00:42.393Z,80.378
2023-04-01T06:02:45.465Z,80.213
2023-04-01T06:03:45.465Z,80.618
2023-04-01T06:04:45.559Z,80.398
2023-04-01T06:05:44.724Z,80.482
2023-04-01T06:06:44.864Z,80.246
2023-04-01T06:07:45.232Z,80.130
2023-04-01T06:08:45.436Z,80.049
2023-04-01T06:09:44.667Z,80.450
2023-04-01T06:10:44.815Z,80.154
2023-04-01T06:11:45.028Z,80.067
2023-04-01T06:12:45.292Z,79.857
2023-04-01T06:13:45.451Z,79.698
2023-04-01T06:14:44.653Z,79.966
2023-04-01T06:15:44.989Z,80.173
2023-04-01T06:16:45.511Z,79.998
2023-04-01T06:17:47.118Z,80.105
2023-04-01T06:19:45.660Z,79.853
2023-04-01T06:20:44.825Z,80.114
2023-04-01T06:21:45.104Z,80.204
2023-04-01T06:22:45.287Z,79.964
2023-04-01T06:23:45.523Z,79.813
2023-04-01T06:24:44.624Z,80.038
2023-04-01T06:25:44.812Z,79.451
2023-04-01T06:26:45.104Z,79.492
2023-04-01T06:27:45.315Z,79.376
2023-04-01T06:28:45.567Z,79.300
2023-04-01T06:29:44.718Z,79.082
2023-04-01T06:30:44.894Z,78.823
2023-04-01T06:31:45.336Z,78.651
2023-04-01T06:32:44.881Z,79.180
2023-04-01T06:33:45.357Z,78.577
2023-04-01T06:34:45.581Z,78.443
2023-04-01T06:35:44.956Z,78.302
2023-04-01T06:36:45.575Z,77.795
2023-04-01T06:37:44.780Z,78.031
2023-04-01T06:38:44.961Z,77.627
2023-04-01T06:39:45.216Z,77.818
2023-04-01T06:40:45.499Z,77.904
2023-04-01T06:41:44.612Z,77.831
2023-04-01T06:42:44.788Z,77.186
2023-04-01T06:43:44.929Z,77.108
2023-04-01T06:44:45.098Z,76.921
2023-04-01T06:45:45.586Z,77.125
2023-04-01T06:46:44.847Z,77.341
2023-04-01T06:47:47.051Z,77.864
2023-04-01T06:49:45.558Z,77.474
2023-04-01T06:50:44.647Z,77.705
2023-04-01T06:51:44.778Z,77.896
2023-04-01T06:52:44.980Z,77.373
2023-04-01T06:53:45.223Z,76.963
2023-04-01T06:54:44.715Z,77.207
2023-04-01T06:55:44.879Z,77.034
2023-04-01T06:56:45.156Z,76.994
2023-04-01T06:57:45.671Z,76.963
2023-04-01T06:58:44.830Z,76.820
2023-04-01T06:59:45.058Z,76.603
2023-04-01T07:00:45.351Z,76.649
2023-04-01T07:01:44.703Z,77.000
2023-04-01T07:02:45.128Z,75.956
2023-04-01T07:03:45.292Z,76.589
2023-04-01T07:04:45.728Z,76.361
2023-04-01T07:05:44.865Z,76.187
2023-04-01T07:06:44.969Z,75.531
2023-04-01T07:07:45.348Z,76.067
2023-04-01T07:08:45.602Z,75.884
2023-04-01T07:09:45.107Z,75.765
2023-04-01T07:10:45.439Z,75.935
2023-04-01T07:11:44.615Z,75.155
2023-04-01T07:12:45.022Z,75.584
2023-04-01T07:13:45.278Z,75.115
2023-04-01T07:14:45.531Z,75.403
2023-04-01T07:15:44.776Z,75.313
2023-04-01T07:16:45.167Z,75.037
2023-04-01T07:17:44.655Z,74.720
2023-04-01T07:18:45.131Z,74.610
2023-04-01T07:19:45.425Z,74.879
2023-04-01T07:20:44.977Z,74.905
2023-04-01T07:21:45.226Z,74.077
2023-04-01T07:22:44.772Z,74.650
2023-04-01T07:23:44.983Z,74.085
2023-04-01T07:24:45.407Z,74.350
2023-04-01T07:25:45.667Z,74.079
2023-04-01T07:26:45.546Z,74.045
2023-04-01T07:28:45.005Z,73.366
2023-04-01T07:29:45.199Z,73.168
2023-04-01T07:30:45.490Z,72.902
2023-04-01T07:31:44.785Z,72.939
2023-04-01T07:32:44.965Z,72.506
2023-04-01T07:33:45.367Z,72.393
2023-04-01T07:34:44.809Z,72.967
2023-04-01T07:35:45.016Z,72.294
2023-04-01T07:36:45.439Z,71.512
2023-04-01T07:37:45.643Z,71.890
2023-04-01T07:38:45.073Z,72.449
2023-04-01T07:39:45.499Z,72.382
2023-04-01T07:40:44.637Z,72.727
2023-04-01T07:41:45.020Z,71.884
2023-04-01T07:42:45.143Z,71.932
2023-04-01T07:43:45.423Z,71.687
2023-04-01T07:44:45.560Z,71.640
2023-04-01T07:45:44.709Z,71.459
2023-04-01T07:46:45.447Z,71.533
2023-04-01T07:47:44.620Z,71.468
2023-04-01T07:48:45.510Z,71.590
2023-04-01T07:49:44.659Z,71.853
2023-04-01T07:50:45.594Z,71.995
2023-04-01T07:51:45.144Z,71.544
2023-04-01T07:52:45.244Z,71.089
2023-04-01T07:53:45.432Z,71.358
2023-04-01T07:54:45.613Z,71.794
2023-04-01T07:55:44.784Z,71.298
2023-04-01T07:56:48.194Z,71.647
2023-04-01T07:58:45.518Z,71.705
2023-04-01T07:59:44.740Z,71.148
2023-04-01T08:00:44.931Z,71.193
2023-04-01T08:01:45.156Z,71.520
2023-04-01T08:02:45.697Z,70.648
2023-04-01T08:03:45.852Z,70.507
2023-04-01T08:04:44.945Z,70.419
2023-04-01T08:05:47.139Z,70.108
2023-04-01T08:07:44.648Z,70.993
2023-04-01T08:08:44.761Z,70.188
2023-04-01T08:09:44.889Z,69.948
2023-04-01T08:10:45.094Z,69.967
2023-04-01T08:11:45.481Z,70.768
2023-04-01T08:12:44.624Z,70.249
2023-04-01T08:13:44.805Z,70.053
2023-04-01T08:14:45.046Z,70.675
2023-04-01T08:15:45.268Z,70.621
2023-04-01T08:16:45.656Z,70.352
2023-04-01T08:17:44.854Z,69.734
2023-04-01T08:18:45.285Z,69.845
2023-04-01T08:19:45.483Z,70.249
2023-04-01T08:20:44.629Z,70.040
2023-04-01T08:21:44.768Z,70.223
2023-04-01T08:22:44.934Z,70.387
2023-04-01T08:23:45.167Z,70.253
2023-04-01T08:24:50.208Z,70.286
2023-04-01T08:26:44.794Z,70.205
2023-04-01T08:27:45.008Z,70.635
2023-04-01T08:28:45.288Z,70.204
2023-04-01T08:29:45.521Z,70.379
2023-04-01T08:30:44.690Z,70.452
2023-04-01T08:31:45.025Z,70.864
2023-04-01T08:32:45.798Z,70.602
2023-04-01T08:33:45.224Z,70.543
2023-04-01T08:34:45.440Z,70.205
2023-04-01T08:35:44.752Z,70.356
2023-04-01T08:36:45.252Z,70.698
2023-04-01T08:37:45.405Z,70.852
2023-04-01T08:38:45.614Z,69.923
2023-04-01T08:39:44.764Z,70.707
2023-04-01T08:40:44.869Z,69.551
2023-04-01T08:41:45.116Z,70.007
2023-04-01T08:42:45.322Z,70.375
2023-04-01T08:43:45.489Z,70.352
2023-04-01T08:44:44.692Z,70.503
2023-04-01T08:45:45.248Z,69.471
2023-04-01T08:46:45.621Z,69.978
2023-04-01T08:47:44.908Z,69.969
2023-04-01T08:48:45.370Z,70.209
2023-04-01T08:49:45.520Z,68.939
2023-04-01T08:50:44.652Z,69.319
2023-04-01T08:51:44.853Z,69.519
2023-04-01T08:52:45.015Z,69.620
2023-04-01T08:53:45.156Z,69.799
2023-04-01T08:54:45.320Z,70.337
2023-04-01T08:55:45.560Z,70.324
2023-04-01T08:56:44.670Z,70.036
2023-04-01T08:57:45.007Z,70.356
2023-04-01T08:58:45.206Z,68.918
2023-04-01T08:59:46.216Z,70.560
2023-04-01T09:00:45.459Z,70.255
2023-04-01T09:02:45.330Z,69.950
2023-04-01T09:03:45.973Z,70.547
2023-04-01T09:04:44.696Z,69.740
2023-04-01T09:05:44.822Z,70.717
2023-04-01T09:06:45.053Z,70.730
2023-04-01T09:07:45.272Z,70.547
2023-04-01T09:08:45.436Z,70.450
2023-04-01T09:09:44.620Z,70.431
2023-04-01T09:10:44.775Z,69.652
2023-04-01T09:11:45.153Z,69.084
2023-04-01T09:12:45.533Z,69.055
2023-04-01T09:13:44.688Z,69.273
2023-04-01T09:14:44.865Z,68.817
2023-04-01T09:15:45.249Z,68.794
2023-04-01T09:16:44.672Z,69.641
2023-04-01T09:17:45.019Z,70.184
2023-04-01T09:18:45.287Z,70.474
2023-04-01T09:19:45.484Z,70.242
2023-04-01T09:20:44.695Z,69.837
2023-04-01T09:21:44.839Z,70.217
2023-04-01T09:22:45.168Z,70.574
2023-04-01T09:23:45.322Z,70.509
2023-04-01T09:24:45.524Z,70.577
2023-04-01T09:25:44.794Z,70.574
2023-04-01T09:26:44.907Z,70.179
2023-04-01T09:27:44.767Z,70.530
2023-04-01T09:28:44.987Z,70.539
2023-04-01T09:29:45.159Z,70.673
2023-04-01T09:30:45.419Z,70.980
2023-04-01T09:31:44.620Z,70.448
2023-04-01T09:32:44.835Z,71.132
2023-04-01T09:33:45.260Z,69.635
2023-04-01T09:34:45.504Z,69.887
2023-04-01T09:35:44.676Z,70.196
2023-04-01T09:36:44.980Z,70.844
2023-04-01T09:37:45.070Z,70.566
2023-04-01T09:38:45.237Z,70.633
2023-04-01T09:39:45.412Z,70.783
2023-04-01T09:40:45.641Z,70.715
2023-04-01T09:41:44.845Z,70.980
2023-04-01T09:42:45.103Z,71.583
2023-04-01T09:43:45.276Z,70.520
2023-04-01T09:44:45.449Z,70.625
2023-04-01T09:45:44.711Z,71.358
2023-04-01T09:46:45.298Z,71.087
2023-04-01T09:47:45.709Z,71.426
2023-04-01T09:48:45.063Z,72.746
2023-04-01T09:49:45.171Z,72.426
2023-04-01T09:50:45.335Z,73.183
2023-04-01T09:51:45.455Z,74.701
2023-04-01T09:52:46.877Z,74.766
2023-04-01T09:53:45.212Z,74.579
2023-04-01T09:54:45.367Z,75.170
2023-04-01T09:55:45.488Z,74.608
2023-04-01T09:56:44.585Z,76.189
2023-04-01T09:58:45.750Z,77.299
2023-04-01T09:59:44.942Z,77.125
2023-04-01T10:00:45.176Z,78.056
2023-04-01T10:01:45.452Z,77.944
2023-04-01T10:02:44.867Z,79.000
2023-04-01T10:03:45.386Z,78.957
2023-04-01T10:04:45.678Z,77.654
2023-04-01T10:05:44.999Z,78.373
2023-04-01T10:06:45.361Z,79.115
2023-04-01T10:07:45.569Z,78.951
2023-04-01T10:08:44.713Z,78.617
2023-04-01T10:09:44.827Z,78.815
2023-04-01T10:10:45.073Z,77.667
2023-04-01T10:11:45.254Z,78.758
2023-04-01T10:12:45.460Z,78.516
2023-04-01T10:13:44.633Z,79.714
2023-04-01T10:14:44.945Z,79.351
2023-04-01T10:15:45.115Z,79.367
2023-04-01T10:16:45.631Z,78.333
2023-04-01T10:17:44.942Z,78.638
2023-04-01T10:18:45.285Z,78.380
2023-04-01T10:19:45.427Z,79.300
2023-04-01T10:20:44.758Z,79.655
2023-04-01T10:21:44.949Z,79.557
2023-04-01T10:22:45.174Z,79.479
2023-04-01T10:23:45.414Z,79.321
2023-04-01T10:24:45.617Z,78.743
2023-04-01T10:25:45.260Z,79.538
2023-04-01T10:26:45.427Z,79.435
2023-04-01T10:27:45.580Z,79.777
2023-04-01T10:28:44.900Z,78.924
2023-04-01T10:29:45.219Z,81.060
2023-04-01T10:30:45.437Z,80.713
2023-04-01T10:31:45.793Z,81.634
2023-04-01T10:32:45.179Z,82.029
2023-04-01T10:33:45.556Z,80.988
2023-04-01T10:34:44.712Z,81.419
2023-04-01T10:35:44.941Z,81.766
2023-04-01T10:36:45.351Z,81.684
2023-04-01T10:37:45.522Z,81.881
2023-04-01T10:38:44.703Z,82.134
2023-04-01T10:39:45.136Z,82.464
2023-04-01T10:40:45.301Z,82.321
2023-04-01T10:41:45.568Z,83.326
2023-04-01T10:42:44.737Z,82.390
2023-04-01T10:43:44.995Z,83.506
2023-04-01T10:44:45.228Z,82.802
2023-04-01T10:45:45.593Z,83.418
2023-04-01T10:46:45.097Z,82.430
2023-04-01T10:47:45.569Z,84.263
2023-04-01T10:48:45.066Z,83.654
2023-04-01T10:49:45.897Z,83.628
2023-04-01T10:50:45.088Z,84.967
2023-04-01T10:51:45.342Z,83.651
2023-04-01T10:52:45.534Z,83.506
2023-04-01T10:53:44.887Z,83.841
2023-04-01T10:54:45.173Z,84.354
2023-04-01T10:55:45.378Z,83.488
2023-04-01T10:56:44.606Z,83.652
2023-04-01T10:57:44.997Z,83.389
2023-04-01T10:58:45.349Z,84.366
2023-04-01T10:59:45.556Z,85.354
2023-04-01T11:00:44.786Z,84.602
2023-04-01T11:01:45.298Z,82.951
2023-04-01T11:02:45.915Z,84.280
2023-04-01T11:03:45.609Z,84.526
2023-04-01T11:04:45.122Z,84.972
2023-04-01T11:05:45.293Z,84.343
2023-04-01T11:06:45.453Z,84.637
2023-04-01T11:07:46.613Z,84.850
2023-04-01T11:08:45.088Z,85.037
2023-04-01T11:09:45.173Z,84.953
2023-04-01T11:10:45.363Z,85.064
2023-04-01T11:11:45.631Z,85.445
2023-04-01T11:12:44.841Z,86.311
2023-04-01T11:13:45.158Z,85.457
2023-04-01T11:14:45.445Z,86.561
2023-04-01T11:15:44.819Z,84.452
2023-04-01T11:16:45.544Z,85.014
2023-04-01T11:17:44.964Z,85.075
2023-04-01T11:18:45.247Z,85.548
2023-04-01T11:19:45.500Z,85.032
2023-04-01T11:20:44.666Z,84.412
2023-04-01T11:21:45.745Z,85.638
2023-04-01T11:22:44.916Z,85.157
2023-04-01T11:24:02.144Z,85.466
2023-04-01T11:24:45.069Z,85.510
2023-04-01T11:25:45.170Z,85.649
2023-04-01T11:26:45.483Z,85.121
2023-04-01T11:27:44.845Z,84.465
2023-04-01T11:28:45.040Z,84.328
2023-04-01T11:29:59.044Z,83.939
2023-04-01T11:30:45.181Z,84.560
2023-04-01T11:31:45.577Z,85.121
2023-04-01T11:32:44.821Z,84.663
2023-04-01T11:33:45.257Z,84.499
2023-04-01T11:34:45.421Z,84.232
2023-04-01T11:35:45.629Z,84.326
2023-04-01T11:36:44.921Z,84.408
2023-04-01T11:37:45.253Z,84.499
2023-04-01T11:38:45.424Z,84.406
2023-04-01T11:39:45.636Z,84.188
2023-04-01T11:40:44.741Z,83.874
2023-04-01T11:41:44.979Z,83.731
2023-04-01T11:42:45.227Z,83.212
2023-04-01T11:43:50.324Z,83.775
2023-04-01T11:45:45.622Z,82.582
2023-04-01T11:46:45.027Z,82.296
2023-04-01T11:47:45.514Z,81.474
2023-04-01T11:48:47.378Z,82.384
2023-04-01T11:50:45.356Z,83.359
2023-04-01T11:51:45.539Z,82.996
2023-04-01T11:52:44.732Z,82.027
2023-04-01T11:53:45.118Z,83.982
2023-04-01T11:54:45.289Z,83.826
2023-04-01T11:55:45.556Z,84.511
2023-04-01T11:56:44.779Z,83.820
2023-04-01T11:57:45.262Z,82.178
2023-04-01T11:58:45.456Z,82.270
2023-04-01T11:59:45.026Z,83.548
2023-04-01T12:00:45.192Z,82.882
2023-04-01T12:01:45.441Z,83.414
2023-04-01T12:02:45.019Z,83.252
2023-04-01T12:03:45.122Z,84.276
2023-04-01T12:04:45.215Z,83.998
2023-04-01T12:05:44.597Z,85.106
2023-04-01T12:06:44.757Z,84.677
2023-04-01T12:07:47.780Z,83.597
2023-04-01T12:09:45.267Z,83.607
2023-04-01T12:10:45.382Z,84.358
2023-04-01T12:11:44.621Z,83.878
2023-04-01T12:12:58.351Z,84.198
2023-04-01T12:14:45.091Z,85.903
2023-04-01T12:15:45.271Z,84.309
2023-04-01T12:16:45.830Z,82.252
2023-04-01T12:17:45.132Z,83.151
2023-04-01T12:18:45.685Z,84.328
2023-04-01T12:19:44.862Z,83.910
2023-04-01T12:20:45.172Z,83.563
2023-04-01T12:21:45.411Z,83.359
2023-04-01T12:22:44.630Z,82.663
2023-04-01T12:23:44.782Z,83.113
2023-04-01T12:24:44.949Z,84.028
2023-04-01T12:25:45.150Z,83.294
2023-04-01T12:26:45.324Z,83.937
2023-04-01T12:27:45.571Z,83.446
2023-04-01T12:28:44.822Z,84.257
2023-04-01T12:29:45.008Z,84.648
2023-04-01T12:30:45.163Z,84.797
2023-04-01T12:31:45.547Z,84.141
2023-04-01T12:32:45.028Z,84.200
2023-04-01T12:33:45.409Z,84.597
2023-04-01T12:34:45.617Z,85.278
2023-04-01T12:35:44.782Z,84.776
2023-04-01T12:36:45.021Z,85.581
2023-04-01T12:37:45.152Z,84.948
2023-04-01T12:38:45.483Z,85.419
2023-04-01T12:39:44.599Z,85.175
2023-04-01T12:40:44.843Z,84.600
2023-04-01T12:41:45.148Z,84.867
2023-04-01T12:42:45.367Z,84.375
2023-04-01T12:43:45.595Z,84.093
2023-04-01T12:44:44.847Z,85.302
2023-04-01T12:45:45.062Z,84.072
2023-04-01T12:46:45.696Z,84.013
2023-04-01T12:47:45.043Z,85.102
2023-04-01T12:48:45.299Z,85.974
2023-04-01T12:49:45.545Z,84.789
2023-04-01T12:50:44.728Z,84.793
2023-04-01T12:51:44.919Z,84.154
2023-04-01T12:52:45.088Z,84.446
2023-04-01T12:53:45.209Z,84.984
2023-04-01T12:54:45.349Z,84.408